createdAt,value
2023-05-11T00:00:45.481Z,14.62
2023-05-11T00:01:45.504Z,14.58
2023-05-11T00:02:45.550Z,14.59
2023-05-11T00:03:45.520Z,14.53
2023-05-11T00:04:45.495Z,14.48
2023-05-11T00:05:45.451Z,14.62
2023-05-11T00:06:45.424Z,14.60
2023-05-11T00:07:45.419Z,14.47
2023-05-11T00:08:45.395Z,14.53
2023-05-11T00:09:45.403Z,14.51
2023-05-11T00:10:45.369Z,14.54
2023-05-11T00:11:45.378Z,14.53
2023-05-11T00:12:45.392Z,14.62
2023-05-11T00:13:45.331Z,14.62
2023-05-11T00:14:45.330Z,14.63
2023-05-11T00:15:45.377Z,14.51
2023-05-11T00:16:45.304Z,14.54
2023-05-11T00:17:45.402Z,14.58
2023-05-11T00:18:45.353Z,14.47
2023-05-11T00:19:45.273Z,14.50
2023-05-11T00:20:45.281Z,14.54
2023-05-11T00:21:45.245Z,14.63
2023-05-11T00:22:45.242Z,14.59
2023-05-11T00:23:45.244Z,14.65
2023-05-11T00:24:45.219Z,14.55
2023-05-11T00:25:45.216Z,14.62
2023-05-11T00:26:45.196Z,14.68
2023-05-11T00:27:45.240Z,14.65
2023-05-11T00:28:45.197Z,14.63
2023-05-11T00:29:45.151Z,14.55
2023-05-11T00:30:45.149Z,14.62
2023-05-11T00:31:45.156Z,14.50
2023-05-11T00:32:45.249Z,14.53
2023-05-11T00:33:45.114Z,14.60
2023-05-11T00:34:45.112Z,14.47
2023-05-11T00:35:45.101Z,14.59
2023-05-11T00:36:45.075Z,14.51
2023-05-11T00:37:45.074Z,14.59
2023-05-11T00:38:45.115Z,14.54
2023-05-11T00:39:45.066Z,14.60
2023-05-11T00:40:45.028Z,14.58
2023-05-11T00:41:45.040Z,14.50
2023-05-11T00:42:45.020Z,14.50
2023-05-11T00:43:45.013Z,14.53
2023-05-11T00:44:44.984Z,14.55
2023-05-11T00:45:44.978Z,14.55
2023-05-11T00:46:44.993Z,14.54
2023-05-11T00:47:45.002Z,14.58
2023-05-11T00:48:44.935Z,14.45
2023-05-11T00:49:44.946Z,14.50
2023-05-11T00:50:44.923Z,14.45
2023-05-11T00:51:44.915Z,14.55
2023-05-11T00:52:44.891Z,14.53
2023-05-11T00:53:44.902Z,14.51
2023-05-11T00:54:44.886Z,14.47
2023-05-11T00:55:44.858Z,14.45
2023-05-11T00:56:44.847Z,14.50
2023-05-11T00:57:44.836Z,14.41
2023-05-11T00:58:44.835Z,14.40
2023-05-11T00:59:44.842Z,14.45
2023-05-11T01:00:44.863Z,14.45
2023-05-11T01:01:44.845Z,14.45
2023-05-11T01:02:45.089Z,14.43
2023-05-11T01:03:44.764Z,14.37
2023-05-11T01:04:44.772Z,14.40
2023-05-11T01:05:44.758Z,14.45
2023-05-11T01:06:44.832Z,14.48
2023-05-11T01:07:44.761Z,14.44
2023-05-11T01:08:44.715Z,14.37
2023-05-11T01:09:44.709Z,14.43
2023-05-11T01:10:44.689Z,14.33
2023-05-11T01:11:44.751Z,14.35
2023-05-11T01:12:44.670Z,14.40
2023-05-11T01:13:44.678Z,14.25
2023-05-11T01:14:44.664Z,14.33
2023-05-11T01:15:44.660Z,14.32
2023-05-11T01:16:44.693Z,14.32
2023-05-11T01:17:44.653Z,14.36
2023-05-11T01:18:44.679Z,14.35
2023-05-11T01:19:44.608Z,14.30
2023-05-11T01:20:44.589Z,14.26
2023-05-11T01:21:44.570Z,14.29
2023-05-11T01:22:44.584Z,14.35
2023-05-11T01:23:44.557Z,14.32
2023-05-11T01:24:44.575Z,14.30
2023-05-11T01:25:44.524Z,14.25
2023-05-11T01:26:44.539Z,14.28
2023-05-11T01:27:44.533Z,14.23
2023-05-11T01:28:44.509Z,14.29
2023-05-11T01:29:44.492Z,14.26
2023-05-11T01:30:44.471Z,14.26
2023-05-11T01:31:44.511Z,14.30
2023-05-11T01:32:44.473Z,14.15
2023-05-11T01:33:44.490Z,14.17
2023-05-11T01:34:44.423Z,14.22
2023-05-11T01:35:44.411Z,14.20
2023-05-11T01:36:44.424Z,14.17
2023-05-11T01:37:44.390Z,14.14
2023-05-11T01:38:44.399Z,14.18
2023-05-11T01:39:44.382Z,14.22
2023-05-11T01:40:44.369Z,14.15
2023-05-11T01:41:44.341Z,14.15
2023-05-11T01:42:44.334Z,14.23
2023-05-11T01:43:44.328Z,14.17
2023-05-11T01:44:44.336Z,14.17
2023-05-11T01:45:44.333Z,14.20
2023-05-11T01:46:44.306Z,14.26
2023-05-11T01:47:44.361Z,14.20
2023-05-11T01:48:44.267Z,14.12
2023-05-11T01:49:44.264Z,14.20
2023-05-11T01:50:44.252Z,14.18
2023-05-11T01:51:44.228Z,14.22
2023-05-11T01:52:44.224Z,14.15
2023-05-11T01:53:44.208Z,14.20
2023-05-11T01:54:44.196Z,14.17
2023-05-11T01:55:44.223Z,14.22
2023-05-11T01:56:44.187Z,14.18
2023-05-11T01:57:44.172Z,14.26
2023-05-11T01:58:44.154Z,14.26
2023-05-11T01:59:44.169Z,14.23
2023-05-11T02:00:44.143Z,14.23
2023-05-11T02:01:44.149Z,14.23
2023-05-11T02:02:44.161Z,14.26
2023-05-11T02:03:44.165Z,14.28
2023-05-11T02:04:44.091Z,14.25
2023-05-11T02:05:44.075Z,14.22
2023-05-11T02:06:44.080Z,14.20
2023-05-11T02:07:44.070Z,14.25
2023-05-11T02:08:44.038Z,14.20
2023-05-11T02:09:44.024Z,14.26
2023-05-11T02:10:44.051Z,14.23
2023-05-11T02:11:44.010Z,14.22
2023-05-11T02:12:43.997Z,14.23
2023-05-11T02:13:43.996Z,14.26
2023-05-11T02:14:43.972Z,14.25
2023-05-11T02:15:44.003Z,14.20
2023-05-11T02:16:43.972Z,14.15
2023-05-11T02:17:44.041Z,14.29
2023-05-11T02:18:43.969Z,14.29
2023-05-11T02:19:43.940Z,14.28
2023-05-11T02:20:43.909Z,14.23
2023-05-11T02:21:43.908Z,14.22
2023-05-11T02:22:43.887Z,14.32
2023-05-11T02:23:43.882Z,14.26
2023-05-11T02:24:43.862Z,14.26
2023-05-11T02:25:43.849Z,14.26
2023-05-11T02:26:43.847Z,14.25
2023-05-11T02:27:43.826Z,14.15
2023-05-11T02:28:43.836Z,14.15
2023-05-11T02:29:43.805Z,14.22
2023-05-11T02:30:43.791Z,14.29
2023-05-11T02:31:43.930Z,14.28
2023-05-11T02:32:43.798Z,14.29
2023-05-11T02:33:43.760Z,14.25
2023-05-11T02:34:43.755Z,14.18
2023-05-11T02:35:43.776Z,14.30
2023-05-11T02:36:43.750Z,14.20
2023-05-11T02:37:43.743Z,14.23
2023-05-11T02:38:43.732Z,14.25
2023-05-11T02:39:43.687Z,14.26
2023-05-11T02:40:43.680Z,14.23
2023-05-11T02:41:43.684Z,14.17
2023-05-11T02:42:43.659Z,14.26
2023-05-11T02:43:43.656Z,14.26
2023-05-11T02:44:43.662Z,14.22
2023-05-11T02:45:43.619Z,14.29
2023-05-11T02:46:43.656Z,14.23
2023-05-11T02:47:43.707Z,14.20
2023-05-11T02:48:43.594Z,14.26
2023-05-11T02:49:43.579Z,14.26
2023-05-11T02:50:43.571Z,14.25
2023-05-11T02:51:43.599Z,14.25
2023-05-11T02:52:43.546Z,14.25
2023-05-11T02:53:43.547Z,14.29
2023-05-11T02:54:43.528Z,14.26
2023-05-11T02:55:43.509Z,14.26
2023-05-11T02:56:43.505Z,14.20
2023-05-11T02:57:43.496Z,14.26
2023-05-11T02:58:43.479Z,14.22
2023-05-11T02:59:43.472Z,14.25
2023-05-11T03:00:43.528Z,14.22
2023-05-11T03:01:43.546Z,14.29
2023-05-11T03:02:43.501Z,14.22
2023-05-11T03:03:43.526Z,14.26
2023-05-11T03:04:43.415Z,14.18
2023-05-11T03:05:43.406Z,14.22
2023-05-11T03:06:43.392Z,14.23
2023-05-11T03:07:43.393Z,14.20
2023-05-11T03:08:43.388Z,14.25
2023-05-11T03:09:43.372Z,14.30
2023-05-11T03:10:43.345Z,14.14
2023-05-11T03:11:43.376Z,14.22
2023-05-11T03:12:43.332Z,14.22
2023-05-11T03:13:43.317Z,14.28
2023-05-11T03:14:43.317Z,14.29
2023-05-11T03:15:43.305Z,14.32
2023-05-11T03:16:43.295Z,14.28
2023-05-11T03:17:43.291Z,14.32
2023-05-11T03:18:43.293Z,14.26
2023-05-11T03:19:43.260Z,14.29
2023-05-11T03:20:43.228Z,14.29
2023-05-11T03:21:43.227Z,14.28
2023-05-11T03:22:43.217Z,14.30
2023-05-11T03:23:43.225Z,14.26
2023-05-11T03:24:43.186Z,14.30
2023-05-11T03:25:43.200Z,14.33
2023-05-11T03:26:43.177Z,14.30
2023-05-11T03:27:43.176Z,14.26
2023-05-11T03:28:43.162Z,14.29
2023-05-11T03:29:43.147Z,14.35
2023-05-11T03:30:43.150Z,14.28
2023-05-11T03:31:43.126Z,14.25
2023-05-11T03:32:43.125Z,14.33
2023-05-11T03:33:43.094Z,14.29
2023-05-11T03:34:43.106Z,14.28
2023-05-11T03:35:43.071Z,14.33
2023-05-11T03:36:43.059Z,14.30
2023-05-11T03:37:43.058Z,14.28
2023-05-11T03:38:43.028Z,14.30
2023-05-11T03:39:43.045Z,14.29
2023-05-11T03:40:43.024Z,14.28
2023-05-11T03:41:43.004Z,14.25
2023-05-11T03:42:42.989Z,14.28
2023-05-11T03:43:42.987Z,14.25
2023-05-11T03:44:42.996Z,14.29
2023-05-11T03:45:43.120Z,14.15
2023-05-11T03:46:42.969Z,14.26
2023-05-11T03:47:42.997Z,14.26
2023-05-11T03:48:42.923Z,14.26
2023-05-11T03:49:42.936Z,14.28
2023-05-11T03:50:42.890Z,14.30
2023-05-11T03:51:42.922Z,14.25
2023-05-11T03:52:42.873Z,14.26
2023-05-11T03:53:42.878Z,14.30
2023-05-11T03:54:42.853Z,14.28
2023-05-11T03:55:42.860Z,14.32
2023-05-11T03:56:42.823Z,14.29
2023-05-11T03:57:42.823Z,14.29
2023-05-11T03:58:42.838Z,14.32
2023-05-11T03:59:42.799Z,14.29
2023-05-11T04:00:42.777Z,14.25
2023-05-11T04:01:42.770Z,14.28
2023-05-11T04:02:42.859Z,14.30
2023-05-11T04:03:42.848Z,14.25
2023-05-11T04:04:42.779Z,14.30
2023-05-11T04:05:42.724Z,14.35
2023-05-11T04:06:42.724Z,14.29
2023-05-11T04:07:42.703Z,14.33
2023-05-11T04:08:42.689Z,14.33
2023-05-11T04:09:42.688Z,14.29
2023-05-11T04:10:42.700Z,14.33
2023-05-11T04:11:42.747Z,14.30
2023-05-11T04:12:42.665Z,14.35
2023-05-11T04:13:42.646Z,14.33
2023-05-11T04:14:42.629Z,14.35
2023-05-11T04:15:42.674Z,14.37
2023-05-11T04:16:42.666Z,14.35
2023-05-11T04:17:42.657Z,14.35
2023-05-11T04:18:42.646Z,14.33
2023-05-11T04:19:42.578Z,14.36
2023-05-11T04:20:42.586Z,14.33
2023-05-11T04:21:42.545Z,14.33
2023-05-11T04:22:42.535Z,14.37
2023-05-11T04:23:42.519Z,14.35
2023-05-11T04:24:42.527Z,14.36
2023-05-11T04:25:42.496Z,14.33
2023-05-11T04:26:42.498Z,14.32
2023-05-11T04:27:42.514Z,14.29
2023-05-11T04:28:42.464Z,14.33
2023-05-11T04:29:42.482Z,14.35
2023-05-11T04:30:42.461Z,14.36
2023-05-11T04:31:42.499Z,14.37
2023-05-11T04:32:42.445Z,14.41
2023-05-11T04:33:42.411Z,14.37
2023-05-11T04:34:42.437Z,14.37
2023-05-11T04:35:42.423Z,14.33
2023-05-11T04:36:42.387Z,14.43
2023-05-11T04:37:42.363Z,14.37
2023-05-11T04:38:42.351Z,14.44
2023-05-11T04:39:42.377Z,14.41
2023-05-11T04:40:42.349Z,14.47
2023-05-11T04:41:42.323Z,14.36
2023-05-11T04:42:42.304Z,14.29
2023-05-11T04:43:42.312Z,14.37
2023-05-11T04:44:42.288Z,14.35
2023-05-11T04:45:42.298Z,14.40
2023-05-11T04:46:42.278Z,14.36
2023-05-11T04:47:42.302Z,14.35
2023-05-11T04:48:42.242Z,14.40
2023-05-11T04:49:42.237Z,14.36
2023-05-11T04:50:42.264Z,14.35
2023-05-11T04:51:42.234Z,14.30
2023-05-11T04:52:42.219Z,14.37
2023-05-11T04:53:42.483Z,14.33
2023-05-11T04:54:42.178Z,14.37
2023-05-11T04:55:42.162Z,14.36
2023-05-11T04:56:42.156Z,14.35
2023-05-11T04:57:42.145Z,14.41
2023-05-11T04:58:42.144Z,14.41
2023-05-11T04:59:42.175Z,14.48
2023-05-11T05:00:42.170Z,14.47
2023-05-11T05:01:42.161Z,14.48
2023-05-11T05:02:42.120Z,14.47
2023-05-11T05:03:42.159Z,14.47
2023-05-11T05:04:42.053Z,14.45
2023-05-11T05:05:42.052Z,14.44
2023-05-11T05:06:42.036Z,14.47
2023-05-11T05:07:42.055Z,14.47
2023-05-11T05:08:42.025Z,14.47
2023-05-11T05:09:45.097Z,14.48
2023-05-11T05:10:42.009Z,14.47
2023-05-11T05:11:41.996Z,14.47
2023-05-11T05:12:41.968Z,14.51
2023-05-11T05:13:41.993Z,14.41
2023-05-11T05:14:41.957Z,14.44
2023-05-11T05:15:41.966Z,14.45
2023-05-11T05:16:41.949Z,14.40
2023-05-11T05:17:41.986Z,14.51
2023-05-11T05:18:41.925Z,14.45
2023-05-11T05:19:41.895Z,14.48
2023-05-11T05:20:41.886Z,14.54
2023-05-11T05:21:41.882Z,14.60
2023-05-11T05:22:41.889Z,14.62
2023-05-11T05:23:41.850Z,14.60
2023-05-11T05:24:41.844Z,14.59
2023-05-11T05:25:41.865Z,14.63
2023-05-11T05:26:41.842Z,14.70
2023-05-11T05:27:41.815Z,14.72
2023-05-11T05:28:41.821Z,14.70
2023-05-11T05:29:41.789Z,14.66
2023-05-11T05:30:41.793Z,14.68
2023-05-11T05:31:41.794Z,14.66
2023-05-11T05:32:41.799Z,14.65
2023-05-11T05:33:41.759Z,14.68
2023-05-11T05:34:41.738Z,14.79
2023-05-11T05:35:41.727Z,14.77
2023-05-11T05:36:41.702Z,14.79
2023-05-11T05:37:41.704Z,14.78
2023-05-11T05:38:41.720Z,14.72
2023-05-11T05:39:41.679Z,14.69
2023-05-11T05:40:41.661Z,14.69
2023-05-11T05:41:41.660Z,14.72
2023-05-11T05:42:41.636Z,14.65
2023-05-11T05:43:41.626Z,14.69
2023-05-11T05:44:41.637Z,14.78
2023-05-11T05:45:41.624Z,14.69
2023-05-11T05:46:41.646Z,14.69
2023-05-11T05:47:41.653Z,14.72
2023-05-11T05:48:41.584Z,14.77
2023-05-11T05:49:41.585Z,14.68
2023-05-11T05:50:41.556Z,14.70
2023-05-11T05:51:41.554Z,14.66
2023-05-11T05:52:41.521Z,14.70
2023-05-11T05:53:41.511Z,14.88
2023-05-11T05:54:41.523Z,14.72
2023-05-11T05:55:41.520Z,14.82
2023-05-11T05:56:41.479Z,14.84
2023-05-11T05:57:41.478Z,14.86
2023-05-11T05:58:41.457Z,14.82
2023-05-11T05:59:41.447Z,14.88
2023-05-11T06:00:41.446Z,14.84
2023-05-11T06:01:41.445Z,14.97
2023-05-11T06:02:41.581Z,14.88
2023-05-11T06:03:41.551Z,14.94
2023-05-11T06:04:41.422Z,14.85
2023-05-11T06:05:41.383Z,14.91
2023-05-11T06:06:41.379Z,14.92
2023-05-11T06:07:41.371Z,14.88
2023-05-11T06:08:41.349Z,14.91
2023-05-11T06:09:41.341Z,15.02
2023-05-11T06:10:41.316Z,15.17
2023-05-11T06:11:41.337Z,15.06
2023-05-11T06:12:41.335Z,15.19
2023-05-11T06:13:41.289Z,15.28
2023-05-11T06:14:41.278Z,15.29
2023-05-11T06:15:43.384Z,15.31
2023-05-11T06:16:41.340Z,15.21
2023-05-11T06:17:41.285Z,15.22
2023-05-11T06:18:41.280Z,15.24
2023-05-11T06:19:41.246Z,15.33
2023-05-11T06:20:41.215Z,15.25
2023-05-11T06:21:41.209Z,15.18
2023-05-11T06:22:41.194Z,15.19
2023-05-11T06:23:41.198Z,15.19
2023-05-11T06:24:41.187Z,15.22
2023-05-11T06:25:41.150Z,15.19
2023-05-11T06:26:41.136Z,15.19
2023-05-11T06:27:41.127Z,15.18
2023-05-11T06:28:41.139Z,15.19
2023-05-11T06:29:41.105Z,15.18
2023-05-11T06:30:41.111Z,15.19
2023-05-11T06:31:41.132Z,15.17
2023-05-11T06:32:41.123Z,15.19
2023-05-11T06:33:41.059Z,15.21
2023-05-11T06:34:41.060Z,15.21
2023-05-11T06:35:41.071Z,15.24
2023-05-11T06:36:41.036Z,15.25
2023-05-11T06:37:41.021Z,15.27
2023-05-11T06:38:41.011Z,15.21
2023-05-11T06:39:41.026Z,15.25
2023-05-11T06:40:41.011Z,15.35
2023-05-11T06:41:40.998Z,15.39
2023-05-11T06:42:40.965Z,15.37
2023-05-11T06:43:40.953Z,15.42
2023-05-11T06:44:40.966Z,15.47
2023-05-11T06:45:40.970Z,15.46
2023-05-11T06:46:40.925Z,15.49
2023-05-11T06:47:40.956Z,15.40
2023-05-11T06:48:40.886Z,15.47
2023-05-11T06:49:40.903Z,15.59
2023-05-11T06:50:40.879Z,15.54
2023-05-11T06:51:40.884Z,15.59
2023-05-11T06:52:40.891Z,15.91
2023-05-11T06:53:40.841Z,15.92
2023-05-11T06:54:40.857Z,15.91
2023-05-11T06:55:40.810Z,15.91
2023-05-11T06:56:40.827Z,15.90
2023-05-11T06:57:40.789Z,16.09
2023-05-11T06:58:40.779Z,16.31
2023-05-11T06:59:40.764Z,16.57
2023-05-11T07:00:40.758Z,16.72
2023-05-11T07:01:40.793Z,16.86
2023-05-11T07:02:40.767Z,16.83
2023-05-11T07:03:40.718Z,16.84
2023-05-11T07:04:40.770Z,16.89
2023-05-11T07:05:40.698Z,16.84
2023-05-11T07:06:40.720Z,16.84
2023-05-11T07:07:40.707Z,16.83
2023-05-11T07:08:40.697Z,16.75
2023-05-11T07:09:42.140Z,16.76
2023-05-11T07:10:40.632Z,16.61
2023-05-11T07:11:40.634Z,16.49
2023-05-11T07:12:40.628Z,16.51
2023-05-11T07:13:40.602Z,16.42
2023-05-11T07:14:40.613Z,16.47
2023-05-11T07:15:40.591Z,16.35
2023-05-11T07:16:40.630Z,16.38
2023-05-11T07:17:40.632Z,16.33
2023-05-11T07:18:40.650Z,16.41
2023-05-11T07:19:40.547Z,16.31
2023-05-11T07:20:40.525Z,16.36
2023-05-11T07:21:40.530Z,16.39
2023-05-11T07:22:40.524Z,16.41
2023-05-11T07:23:40.509Z,16.33
2023-05-11T07:24:40.508Z,16.32
2023-05-11T07:25:40.469Z,16.36
2023-05-11T07:26:40.459Z,16.29
2023-05-11T07:27:40.446Z,16.26
2023-05-11T07:28:40.477Z,16.38
2023-05-11T07:29:40.423Z,16.32
2023-05-11T07:30:40.410Z,16.33
2023-05-11T07:31:40.421Z,16.35
2023-05-11T07:32:40.428Z,16.38
2023-05-11T07:33:40.416Z,16.39
2023-05-11T07:34:40.361Z,16.38
2023-05-11T07:35:40.353Z,16.28
2023-05-11T07:36:40.344Z,16.24
2023-05-11T07:37:40.330Z,16.21
2023-05-11T07:38:40.332Z,16.23
2023-05-11T07:39:40.418Z,16.28
2023-05-11T07:40:40.304Z,16.31
2023-05-11T07:41:40.292Z,16.39
2023-05-11T07:42:40.268Z,16.29
2023-05-11T07:43:40.287Z,16.20
2023-05-11T07:44:40.271Z,16.10
2023-05-11T07:45:40.248Z,16.00
2023-05-11T07:46:40.267Z,16.05
2023-05-11T07:47:40.245Z,15.91
2023-05-11T07:48:40.206Z,15.90
2023-05-11T07:49:43.972Z,15.92
2023-05-11T07:50:40.178Z,15.98
2023-05-11T07:51:40.166Z,15.92
2023-05-11T07:52:40.663Z,15.94
2023-05-11T07:53:40.143Z,15.95
2023-05-11T07:54:40.400Z,15.91
2023-05-11T07:55:40.140Z,15.90
2023-05-11T07:56:40.113Z,15.94
2023-05-11T07:57:40.103Z,15.86
2023-05-11T07:58:40.101Z,15.91
2023-05-11T07:59:40.099Z,15.84
2023-05-11T08:00:40.071Z,15.95
2023-05-11T08:01:40.154Z,15.84
2023-05-11T08:02:40.147Z,15.79
2023-05-11T08:03:40.056Z,15.82
2023-05-11T08:04:40.029Z,15.79
2023-05-11T08:05:40.076Z,15.73
2023-05-11T08:06:40.034Z,15.59
2023-05-11T08:07:41.538Z,15.64
2023-05-11T08:08:39.970Z,15.65
2023-05-11T08:09:39.989Z,15.64
2023-05-11T08:10:39.977Z,15.52
2023-05-11T08:11:39.959Z,15.65
2023-05-11T08:12:39.933Z,15.65
2023-05-11T08:13:39.916Z,15.67
2023-05-11T08:14:39.926Z,15.67
2023-05-11T08:15:39.916Z,15.72
2023-05-11T08:16:39.961Z,15.73
2023-05-11T08:17:39.893Z,15.84
2023-05-11T08:18:39.898Z,15.88
2023-05-11T08:19:39.852Z,15.90
2023-05-11T08:20:39.878Z,15.91
2023-05-11T08:21:39.833Z,15.98
2023-05-11T08:22:39.820Z,15.98
2023-05-11T08:23:39.804Z,16.00
2023-05-11T08:24:39.801Z,16.01
2023-05-11T08:25:39.793Z,15.98
2023-05-11T08:26:39.802Z,16.10
2023-05-11T08:27:39.788Z,16.10
2023-05-11T08:28:39.757Z,16.13
2023-05-11T08:29:39.741Z,16.13
2023-05-11T08:30:39.734Z,16.16
2023-05-11T08:31:39.774Z,16.10
2023-05-11T08:32:54.607Z,16.20
2023-05-11T08:33:40.796Z,16.29
2023-05-11T08:34:39.822Z,16.39
2023-05-11T08:35:39.664Z,16.31
2023-05-11T08:36:39.662Z,16.29
2023-05-11T08:37:39.665Z,16.31
2023-05-11T08:38:39.664Z,16.33
2023-05-11T08:39:47.322Z,16.28
2023-05-11T08:40:40.611Z,16.32
2023-05-11T08:41:39.624Z,16.28
2023-05-11T08:42:39.628Z,16.43
2023-05-11T08:43:39.618Z,16.47
2023-05-11T08:44:39.620Z,16.36
2023-05-11T08:45:40.995Z,16.36
2023-05-11T08:46:39.550Z,16.35
2023-05-11T08:47:39.588Z,16.33
2023-05-11T08:48:39.531Z,16.35
2023-05-11T08:49:39.513Z,16.31
2023-05-11T08:50:39.498Z,16.31
2023-05-11T08:51:39.490Z,16.35
2023-05-11T08:52:39.489Z,16.47
2023-05-11T08:53:39.458Z,16.51
2023-05-11T08:54:39.453Z,16.64
2023-05-11T08:55:39.443Z,16.60
2023-05-11T08:56:39.429Z,16.83
2023-05-11T08:57:39.443Z,16.94
2023-05-11T08:58:39.416Z,17.08
2023-05-11T08:59:39.574Z,17.22
2023-05-11T09:00:39.381Z,17.27
2023-05-11T09:01:39.401Z,17.38
2023-05-11T09:02:39.392Z,17.36
2023-05-11T09:03:39.362Z,17.16
2023-05-11T09:04:39.389Z,17.22
2023-05-11T09:05:39.341Z,17.15
2023-05-11T09:06:39.312Z,17.11
2023-05-11T09:07:39.309Z,17.29
2023-05-11T09:08:39.290Z,17.09
2023-05-11T09:09:39.299Z,17.04
2023-05-11T09:10:39.269Z,17.09
2023-05-11T09:11:39.286Z,17.08
2023-05-11T09:12:39.263Z,17.05
2023-05-11T09:13:39.237Z,17.16
2023-05-11T09:14:39.230Z,16.97
2023-05-11T09:15:39.364Z,16.87
2023-05-11T09:16:39.227Z,16.83
2023-05-11T09:17:39.275Z,16.83
2023-05-11T09:18:39.206Z,16.87
2023-05-11T09:19:39.167Z,17.09
2023-05-11T09:20:39.175Z,17.02
2023-05-11T09:21:39.193Z,17.12
2023-05-11T09:22:39.139Z,17.16
2023-05-11T09:23:39.121Z,17.22
2023-05-11T09:24:39.108Z,17.27
2023-05-11T09:25:39.110Z,17.31
2023-05-11T09:26:39.095Z,17.20
2023-05-11T09:27:41.006Z,17.09
2023-05-11T09:29:40.057Z,17.06
2023-05-11T09:30:39.057Z,17.08
2023-05-11T09:31:39.175Z,17.05
2023-05-11T09:32:39.041Z,17.09
2023-05-11T09:33:39.006Z,17.20
2023-05-11T09:34:43.266Z,17.02
2023-05-11T09:35:39.001Z,17.01
2023-05-11T09:36:38.980Z,17.06
2023-05-11T09:37:38.962Z,17.24
2023-05-11T09:38:38.952Z,17.30
2023-05-11T09:39:53.237Z,17.22
2023-05-11T09:40:39.990Z,17.33
2023-05-11T09:41:38.944Z,17.59
2023-05-11T09:42:38.927Z,17.79
2023-05-11T09:43:38.895Z,18.13
2023-05-11T09:44:38.907Z,18.40
2023-05-11T09:45:38.877Z,18.40
2023-05-11T09:46:38.943Z,18.43
2023-05-11T09:47:38.969Z,18.29
2023-05-11T09:48:38.846Z,18.34
2023-05-11T09:49:38.836Z,18.29
2023-05-11T09:50:38.820Z,18.33
2023-05-11T09:51:38.824Z,18.20
2023-05-11T09:52:38.813Z,18.22
2023-05-11T09:53:38.783Z,18.23
2023-05-11T09:54:38.786Z,18.20
2023-05-11T09:55:38.759Z,18.07
2023-05-11T09:56:38.751Z,17.95
2023-05-11T09:57:38.796Z,18.04
2023-05-11T09:58:38.739Z,17.94
2023-05-11T09:59:38.749Z,18.03
2023-05-11T10:00:38.719Z,17.95
2023-05-11T10:01:38.736Z,17.94
2023-05-11T10:02:38.762Z,17.95
2023-05-11T10:03:38.944Z,17.89
2023-05-11T10:04:38.664Z,17.80
2023-05-11T10:05:38.696Z,17.78
2023-05-11T10:06:38.644Z,17.83
2023-05-11T10:07:38.621Z,17.79
2023-05-11T10:08:38.628Z,17.72
2023-05-11T10:09:38.638Z,17.51
2023-05-11T10:10:38.592Z,17.72
2023-05-11T10:11:38.602Z,17.54
2023-05-11T10:12:38.720Z,17.70
2023-05-11T10:13:38.560Z,17.67
2023-05-11T10:14:38.586Z,17.72
2023-05-11T10:15:38.556Z,17.79
2023-05-11T10:16:38.666Z,17.67
2023-05-11T10:17:38.638Z,17.67
2023-05-11T10:18:38.558Z,17.60
2023-05-11T10:19:38.509Z,17.63
2023-05-11T10:20:38.503Z,17.60
2023-05-11T10:21:38.475Z,17.60
2023-05-11T10:22:38.503Z,17.54
2023-05-11T10:23:38.461Z,17.59
2023-05-11T10:24:38.443Z,17.56
2023-05-11T10:25:38.457Z,17.63
2023-05-11T10:26:38.440Z,17.54
2023-05-11T10:27:38.411Z,17.60
2023-05-11T10:28:38.389Z,17.54
2023-05-11T10:29:38.399Z,17.57
2023-05-11T10:30:38.395Z,17.60
2023-05-11T10:31:38.414Z,17.45
2023-05-11T10:32:38.364Z,17.29
2023-05-11T10:33:38.330Z,17.26
2023-05-11T10:34:38.319Z,17.26
2023-05-11T10:35:38.360Z,17.23
2023-05-11T10:36:38.311Z,17.22
2023-05-11T10:37:38.283Z,17.31
2023-05-11T10:38:38.275Z,17.41
2023-05-11T10:39:38.276Z,17.36
2023-05-11T10:40:38.259Z,17.36
2023-05-11T10:41:38.303Z,17.41
2023-05-11T10:42:38.274Z,17.46
2023-05-11T10:43:38.221Z,17.52
2023-05-11T10:44:38.210Z,17.51
2023-05-11T10:45:38.204Z,17.57
2023-05-11T10:46:38.182Z,17.57
2023-05-11T10:47:38.226Z,17.51
2023-05-11T10:48:38.168Z,17.51
2023-05-11T10:49:38.154Z,17.41
2023-05-11T10:50:38.158Z,17.63
2023-05-11T10:51:38.167Z,17.57
2023-05-11T10:52:38.115Z,17.63
2023-05-11T10:53:38.103Z,17.63
2023-05-11T10:54:38.092Z,17.60
2023-05-11T10:55:38.103Z,17.65
2023-05-11T10:56:38.078Z,17.63
2023-05-11T10:57:38.077Z,17.74
2023-05-11T10:58:38.069Z,17.79
2023-05-11T10:59:38.040Z,17.67
2023-05-11T11:00:38.062Z,17.59
2023-05-11T11:01:38.182Z,17.56
2023-05-11T11:02:38.070Z,17.33
2023-05-11T11:03:37.988Z,17.54
2023-05-11T11:04:37.995Z,17.51
2023-05-11T11:05:38.034Z,17.57
2023-05-11T11:06:37.968Z,17.57
2023-05-11T11:07:37.962Z,17.57
2023-05-11T11:08:37.937Z,17.34
2023-05-11T11:09:37.940Z,17.34
2023-05-11T11:10:37.939Z,17.23
2023-05-11T11:11:37.902Z,17.15
2023-05-11T11:12:37.908Z,17.15
2023-05-11T11:13:37.876Z,17.19
2023-05-11T11:14:37.877Z,17.15
2023-05-11T11:15:37.848Z,17.06
2023-05-11T11:16:37.965Z,17.12
2023-05-11T11:17:37.855Z,17.11
2023-05-11T11:18:37.863Z,17.14
2023-05-11T11:19:37.808Z,17.06
2023-05-11T11:20:37.808Z,16.97
2023-05-11T11:21:37.815Z,16.93
2023-05-11T11:22:37.783Z,17.02
2023-05-11T11:23:37.785Z,16.94
2023-05-11T11:24:37.758Z,17.04
2023-05-11T11:25:37.739Z,16.94
2023-05-11T11:26:37.778Z,17.04
2023-05-11T11:27:37.722Z,16.94
2023-05-11T11:28:37.723Z,16.93
2023-05-11T11:29:37.692Z,16.89
2023-05-11T11:30:37.727Z,17.01
2023-05-11T11:31:37.770Z,16.90
2023-05-11T11:32:37.724Z,16.86
2023-05-11T11:33:37.646Z,16.83
2023-05-11T11:34:37.659Z,16.72
2023-05-11T11:35:37.624Z,16.71
2023-05-11T11:36:37.650Z,16.75
2023-05-11T11:37:37.615Z,16.81
2023-05-11T11:38:37.601Z,16.65
2023-05-11T11:39:37.609Z,16.71
2023-05-11T11:40:47.170Z,16.74
2023-05-11T11:41:38.582Z,16.79
2023-05-11T11:42:37.551Z,16.87
2023-05-11T11:43:37.919Z,16.83
2023-05-11T11:44:37.567Z,16.86
2023-05-11T11:45:37.530Z,16.97
2023-05-11T11:46:37.516Z,16.97
2023-05-11T11:47:37.558Z,17.09
2023-05-11T11:48:37.515Z,17.06
2023-05-11T11:49:37.472Z,17.08
2023-05-11T11:50:37.459Z,17.02
2023-05-11T11:51:37.481Z,17.01
2023-05-11T11:52:37.438Z,17.02
2023-05-11T11:53:37.501Z,16.94
2023-05-11T11:54:37.424Z,16.90
2023-05-11T11:55:37.414Z,16.84
2023-05-11T11:56:37.401Z,16.81
2023-05-11T11:57:37.370Z,16.89
2023-05-11T11:58:37.360Z,16.83
2023-05-11T11:59:37.388Z,16.84
2023-05-11T12:00:37.336Z,16.83
2023-05-11T12:01:37.323Z,16.84
2023-05-11T12:02:37.428Z,16.87
2023-05-11T12:03:37.560Z,16.87
2023-05-11T12:04:37.336Z,16.84
2023-05-11T12:05:37.281Z,16.83
2023-05-11T12:06:37.272Z,16.81
2023-05-11T12:07:37.257Z,16.71
2023-05-11T12:08:37.240Z,16.72
2023-05-11T12:09:37.409Z,16.68
2023-05-11T12:10:37.253Z,16.75
2023-05-11T12:11:37.232Z,16.84
2023-05-11T12:12:37.206Z,16.86
2023-05-11T12:13:37.193Z,16.90
2023-05-11T12:14:37.181Z,16.87
2023-05-11T12:15:37.182Z,16.81
2023-05-11T12:16:37.205Z,16.75
2023-05-11T12:17:37.176Z,16.68
2023-05-11T12:18:37.183Z,16.64
2023-05-11T12:19:37.138Z,16.68
2023-05-11T12:20:37.104Z,16.69
2023-05-11T12:21:37.094Z,16.69
2023-05-11T12:22:37.086Z,16.66
2023-05-11T12:23:37.076Z,16.50
2023-05-11T12:24:37.098Z,16.53
2023-05-11T12:25:37.049Z,16.51
2023-05-11T12:26:37.047Z,16.49
2023-05-11T12:27:37.067Z,16.53
2023-05-11T12:28:37.020Z,16.46
2023-05-11T12:29:37.071Z,16.49
2023-05-11T12:30:37.003Z,16.46
2023-05-11T12:31:37.035Z,16.47
2023-05-11T12:32:37.009Z,16.43
2023-05-11T12:33:36.961Z,16.50
2023-05-11T12:34:36.957Z,16.42
2023-05-11T12:35:36.965Z,16.50
2023-05-11T12:36:36.962Z,16.54
2023-05-11T12:37:36.918Z,16.50
2023-05-11T12:38:36.898Z,16.57
2023-05-11T12:39:36.904Z,16.64
2023-05-11T12:40:36.907Z,16.74
2023-05-11T12:41:36.915Z,16.86
2023-05-11T12:42:36.859Z,16.96
2023-05-11T12:43:36.876Z,16.97
2023-05-11T12:44:36.849Z,16.89
2023-05-11T12:45:36.834Z,16.87
2023-05-11T12:46:36.873Z,16.90
2023-05-11T12:47:36.886Z,16.84
2023-05-11T12:48:36.808Z,16.90
2023-05-11T12:49:36.778Z,16.87
2023-05-11T12:50:36.783Z,16.94
2023-05-11T12:51:36.764Z,17.05
2023-05-11T12:52:36.744Z,17.08
2023-05-11T12:53:36.752Z,17.24